NCAR-RAP Real-Time Weather Data

Output produced by METARs form (16 August 2018  19:23 UTC)
found at http://weather.rap.ucar.edu/surface/
 
 
ROAH 161900Z 14007KT 9999 FEW015 BKN180 26/25 Q1002 RMK 1CU015 6AC180 A2961
 
RODN 161856Z AUTO 13007KT 10SM CLR 26/24 A2963 RMK AO2 SLP039 T02580244